Tuesday, January 22, 2019, 3:58 PM EST
Back to Local

KSEG, Selinsgrove Penn Valley Airport

Location: Selinsgrove, PA, United States Lat: 40.817
Local Time: 3:58 PM EST (20:58 GMT) Lon: -76.867
Time Zone: US/Eastern Elev: 449 ft

Show me the last for .
Show Coded

Time T Td Feel RH Dir Speed Gust Alt SLP Vis Weather Sky Remarks
2019-01-22 14:53 21 4 - 46 - Calm - 30.60 30.62 10 FEW095 None
2019-01-22 13:53 21 6 16 51 340° 3 - 30.61 30.64 10 SCT120 None
2019-01-22 12:53 19 4 - 50 - Calm - 30.65 30.68 10 CLR Pressure falling rapidly
6-hr Min Temp (1pm): -4.0°F
6-hr Max Temp (1pm): 19.0°F
2019-01-22 11:53 16 5 - 61 - Calm - 30.69 30.72 10 CLR None
2019-01-22 10:53 14 4 - 63 - Calm - 30.71 30.73 10 CLR None
2019-01-22 09:53 11 7 - 83 - Calm - 30.71 30.74 10 CLR None
2019-01-22 08:53 3 1 - 91 - Calm - 30.70 30.74 10 CLR None
2019-01-22 07:53 0 -4 - 82 - Calm - 30.70 30.73 10 CLR None
2019-01-22 06:53 -1 -5 - 82 - Calm - 30.68 30.71 10 CLR 6-hr Min Temp (7am): -2.9°F
6-hr Max Temp (7am): 9.0°F
2019-01-22 05:53 0 -5 - 78 - Calm - 30.65 30.68 10 CLR None
2019-01-22 04:53 3 -2 - 78 - Calm - 30.63 30.66 10 CLR None
2019-01-22 03:53 5 -1 - 75 - Calm - 30.63 30.66 10 CLR None
2019-01-22 02:53 8 -1 - 65 - Calm - 30.60 30.63 10 CLR None
2019-01-22 01:53 1 -2 - 86 - Calm - 30.57 30.60 10 CLR None
2019-01-22 00:53 4 -2 - 75 - Calm - 30.55 30.58 10 CLR 6-hr Min Temp (1am): 3.0°F
6-hr Max Temp (1am): 12.0°F
2019-01-21 23:53 6 -3 - 65 - Calm - 30.54 30.58 10 CLR 24-hr Min Temp (12am): 3.0°F
24-hr Max Temp (12am): 15.1°F
2019-01-21 22:53 9 -3 1 57 300° 5 - 30.56 30.59 10 CLR None
2019-01-21 21:53 10 -4 -8 52 300° 8 17 30.53 30.56 10 CLR None
2019-01-21 20:53 11 -5 -3 47 320° 10 - 30.51 30.54 10 CLR None
2019-01-21 19:53 12 -6 -6 43 310° 13 20 30.48 30.51 10 CLR None
2019-01-21 18:53 12 -6 -3 43 310° 14 - 30.44 30.47 10 CLR 6-hr Min Temp (7pm): 12.0°F
6-hr Max Temp (7pm): 15.1°F
2019-01-21 17:53 12 -7 0 41 300° 9 - 30.41 30.44 10 CLR None
2019-01-21 16:53 13 -7 -6 39 300° 12 23 30.38 30.41 10 CLR None

Support USWX by starting your Amazon purchase here.